sensor_id;sensor_type;location;lat;lon;timestamp;pressure;altitude;pressure_sealevel;temperature;humidity
68075;BME280;54864;52.002;5.468;2023-04-21T00:00:19;101457.53;;;10.25;80.98
68075;BME280;54864;52.002;5.468;2023-04-21T00:01:20;101456.50;;;10.29;79.99
68075;BME280;54864;52.002;5.468;2023-04-21T00:02:21;101454.88;;;10.25;79.70
68075;BME280;54864;52.002;5.468;2023-04-21T00:03:22;101449.56;;;10.27;79.86
68075;BME280;54864;52.002;5.468;2023-04-21T00:04:27;101448.69;;;10.26;80.06
68075;BME280;54864;52.002;5.468;2023-04-21T00:05:27;101453.91;;;10.28;80.77
68075;BME280;54864;52.002;5.468;2023-04-21T00:06:33;101446.66;;;10.34;81.05
68075;BME280;54864;52.002;5.468;2023-04-21T00:07:34;101447.56;;;10.33;80.58
68075;BME280;54864;52.002;5.468;2023-04-21T00:08:37;101435.31;;;10.32;79.93
68075;BME280;54864;52.002;5.468;2023-04-21T00:09:39;101440.53;;;10.34;80.29
68075;BME280;54864;52.002;5.468;2023-04-21T00:10:41;101442.25;;;10.35;80.38
68075;BME280;54864;52.002;5.468;2023-04-21T00:11:42;101443.00;;;10.38;80.76
68075;BME280;54864;52.002;5.468;2023-04-21T00:12:44;101438.91;;;10.30;81.20
68075;BME280;54864;52.002;5.468;2023-04-21T00:13:45;101442.09;;;10.13;81.06
68075;BME280;54864;52.002;5.468;2023-04-21T00:14:46;101439.13;;;10.24;81.68
68075;BME280;54864;52.002;5.468;2023-04-21T00:15:47;101450.16;;;10.35;81.20
68075;BME280;54864;52.002;5.468;2023-04-21T00:16:49;101432.56;;;10.35;81.06
68075;BME280;54864;52.002;5.468;2023-04-21T00:17:52;101438.56;;;10.40;80.60
68075;BME280;54864;52.002;5.468;2023-04-21T00:18:53;101432.28;;;10.44;80.16
68075;BME280;54864;52.002;5.468;2023-04-21T00:19:54;101431.31;;;10.47;79.95
68075;BME280;54864;52.002;5.468;2023-04-21T00:20:56;101426.91;;;10.47;79.93
68075;BME280;54864;52.002;5.468;2023-04-21T00:21:58;101425.72;;;10.30;80.17
68075;BME280;54864;52.002;5.468;2023-04-21T00:23:00;101425.19;;;10.20;80.96
68075;BME280;54864;52.002;5.468;2023-04-21T00:24:01;101422.25;;;10.29;81.41
68075;BME280;54864;52.002;5.468;2023-04-21T00:25:04;101420.50;;;10.28;81.03
68075;BME280;54864;52.002;5.468;2023-04-21T00:26:05;101414.84;;;10.40;80.32
68075;BME280;54864;52.002;5.468;2023-04-21T00:27:07;101416.66;;;10.38;80.56
68075;BME280;54864;52.002;5.468;2023-04-21T00:28:07;101414.38;;;10.28;81.05
68075;BME280;54864;52.002;5.468;2023-04-21T00:29:09;101410.50;;;10.38;81.31
68075;BME280;54864;52.002;5.468;2023-04-21T00:30:13;101411.44;;;10.37;80.91
68075;BME280;54864;52.002;5.468;2023-04-21T00:31:15;101411.31;;;10.40;80.96
68075;BME280;54864;52.002;5.468;2023-04-21T00:32:15;101405.88;;;10.46;80.40
68075;BME280;54864;52.002;5.468;2023-04-21T00:33:17;101417.16;;;10.50;80.17
68075;BME280;54864;52.002;5.468;2023-04-21T00:34:18;101414.31;;;10.56;80.09
68075;BME280;54864;52.002;5.468;2023-04-21T00:35:20;101411.94;;;10.48;79.96
68075;BME280;54864;52.002;5.468;2023-04-21T00:36:21;101414.63;;;10.46;80.25
68075;BME280;54864;52.002;5.468;2023-04-21T00:37:25;101414.94;;;10.37;80.21
68075;BME280;54864;52.002;5.468;2023-04-21T00:38:26;101407.81;;;10.39;80.34
68075;BME280;54864;52.002;5.468;2023-04-21T00:39:27;101403.09;;;10.24;80.45
68075;BME280;54864;52.002;5.468;2023-04-21T00:40:28;101400.28;;;10.29;80.97
68075;BME280;54864;52.002;5.468;2023-04-21T00:41:31;101408.47;;;10.21;81.58
68075;BME280;54864;52.002;5.468;2023-04-21T00:42:34;101400.19;;;10.05;81.28
68075;BME280;54864;52.002;5.468;2023-04-21T00:43:36;101401.41;;;9.95;82.63
68075;BME280;54864;52.002;5.468;2023-04-21T00:44:36;101395.78;;;10.06;82.33
68075;BME280;54864;52.002;5.468;2023-04-21T00:45:38;101389.41;;;10.13;82.11
68075;BME280;54864;52.002;5.468;2023-04-21T00:46:39;101383.50;;;9.80;83.09
68075;BME280;54864;52.002;5.468;2023-04-21T00:47:42;101382.91;;;9.70;84.31
68075;BME280;54864;52.002;5.468;2023-04-21T00:48:43;101388.56;;;9.86;84.05
68075;BME280;54864;52.002;5.468;2023-04-21T00:49:45;101385.31;;;9.78;84.09
68075;BME280;54864;52.002;5.468;2023-04-21T00:50:46;101393.16;;;9.79;84.10
68075;BME280;54864;52.002;5.468;2023-04-21T00:51:49;101394.84;;;9.82;84.22
68075;BME280;54864;52.002;5.468;2023-04-21T00:52:51;101393.56;;;9.94;83.87
68075;BME280;54864;52.002;5.468;2023-04-21T00:53:54;101392.72;;;9.93;84.46
68075;BME280;54864;52.002;5.468;2023-04-21T00:54:55;101385.78;;;9.63;83.99
68075;BME280;54864;52.002;5.468;2023-04-21T00:55:57;101392.41;;;9.76;84.65
68075;BME280;54864;52.002;5.468;2023-04-21T00:56:58;101382.44;;;9.85;84.64
68075;BME280;54864;52.002;5.468;2023-04-21T00:58:01;101385.97;;;9.84;84.90
68075;BME280;54864;52.002;5.468;2023-04-21T00:59:02;101383.66;;;9.75;85.13
68075;BME280;54864;52.002;5.468;2023-04-21T01:00:05;101390.66;;;9.75;84.91
68075;BME280;54864;52.002;5.468;2023-04-21T01:01:08;101384.97;;;9.89;84.68
68075;BME280;54864;52.002;5.468;2023-04-21T01:02:12;101387.69;;;9.85;84.68
68075;BME280;54864;52.002;5.468;2023-04-21T01:03:14;101379.09;;;9.80;85.31
68075;BME280;54864;52.002;5.468;2023-04-21T01:04:16;101384.09;;;9.88;84.49
68075;BME280;54864;52.002;5.468;2023-04-21T01:05:17;101386.94;;;9.82;84.90
68075;BME280;54864;52.002;5.468;2023-04-21T01:06:18;101382.47;;;9.84;85.34
68075;BME280;54864;52.002;5.468;2023-04-21T01:07:19;101386.44;;;9.69;85.20
68075;BME280;54864;52.002;5.468;2023-04-21T01:08:22;101382.00;;;9.71;85.92
68075;BME280;54864;52.002;5.468;2023-04-21T01:09:23;101379.75;;;9.87;85.38
68075;BME280;54864;52.002;5.468;2023-04-21T01:10:25;101368.31;;;9.88;85.39
68075;BME280;54864;52.002;5.468;2023-04-21T01:11:25;101377.59;;;9.98;85.45
68075;BME280;54864;52.002;5.468;2023-04-21T01:12:30;101371.44;;;9.99;84.74
68075;BME280;54864;52.002;5.468;2023-04-21T01:13:31;101376.69;;;9.99;84.38
68075;BME280;54864;52.002;5.468;2023-04-21T01:14:33;101374.00;;;10.01;83.94
68075;BME280;54864;52.002;5.468;2023-04-21T01:15:33;101369.97;;;9.91;84.23
68075;BME280;54864;52.002;5.468;2023-04-21T01:16:35;101376.09;;;9.91;84.85
68075;BME280;54864;52.002;5.468;2023-04-21T01:17:39;101380.34;;;9.95;84.42
68075;BME280;54864;52.002;5.468;2023-04-21T01:18:41;101370.72;;;9.94;85.09
68075;BME280;54864;52.002;5.468;2023-04-21T01:19:42;101377.06;;;9.89;84.57
68075;BME280;54864;52.002;5.468;2023-04-21T01:20:44;101368.44;;;9.83;85.23
68075;BME280;54864;52.002;5.468;2023-04-21T01:21:46;101360.41;;;9.88;85.25
68075;BME280;54864;52.002;5.468;2023-04-21T01:22:48;101370.38;;;9.78;85.71
68075;BME280;54864;52.002;5.468;2023-04-21T01:23:50;101368.09;;;9.94;85.53
68075;BME280;54864;52.002;5.468;2023-04-21T01:24:52;101361.91;;;9.95;84.85
68075;BME280;54864;52.002;5.468;2023-04-21T01:25:56;101358.38;;;9.96;84.86
68075;BME280;54864;52.002;5.468;2023-04-21T01:26:57;101360.25;;;9.93;84.93
68075;BME280;54864;52.002;5.468;2023-04-21T01:27:58;101363.09;;;9.87;85.21
68075;BME280;54864;52.002;5.468;2023-04-21T01:29:01;101359.75;;;9.81;85.64
68075;BME280;54864;52.002;5.468;2023-04-21T01:30:03;101354.06;;;9.94;85.19
68075;BME280;54864;52.002;5.468;2023-04-21T01:31:05;101366.47;;;9.90;85.10
68075;BME280;54864;52.002;5.468;2023-04-21T01:32:07;101358.16;;;10.02;84.90
68075;BME280;54864;52.002;5.468;2023-04-21T01:33:10;101364.28;;;10.03;85.12
68075;BME280;54864;52.002;5.468;2023-04-21T01:34:10;101365.84;;;10.08;84.77
68075;BME280;54864;52.002;5.468;2023-04-21T01:35:12;101363.22;;;10.08;84.62
68075;BME280;54864;52.002;5.468;2023-04-21T01:36:13;101358.03;;;10.05;84.74
68075;BME280;54864;52.002;5.468;2023-04-21T01:37:18;101357.78;;;10.13;84.29
68075;BME280;54864;52.002;5.468;2023-04-21T01:38:19;101356.31;;;10.04;84.12
68075;BME280;54864;52.002;5.468;2023-04-21T01:39:21;101348.53;;;10.01;84.51
68075;BME280;54864;52.002;5.468;2023-04-21T01:40:22;101348.69;;;9.97;84.60
68075;BME280;54864;52.002;5.468;2023-04-21T01:41:24;101346.53;;;10.08;84.94
68075;BME280;54864;52.002;5.468;2023-04-21T01:42:26;101349.72;;;10.17;84.19
68075;BME280;54864;52.002;5.468;2023-04-21T01:43:28;101345.22;;;10.21;83.95
68075;BME280;54864;52.002;5.468;2023-04-21T01:44:29;101342.44;;;10.26;83.61
68075;BME280;54864;52.002;5.468;2023-04-21T01:45:31;101345.97;;;10.25;83.58
68075;BME280;54864;52.002;5.468;2023-04-21T01:46:31;101345.06;;;10.26;83.73
68075;BME280;54864;52.002;5.468;2023-04-21T01:47:33;101340.44;;;10.32;83.56
68075;BME280;54864;52.002;5.468;2023-04-21T01:48:35;101351.03;;;10.31;83.14
68075;BME280;54864;52.002;5.468;2023-04-21T01:49:37;101347.75;;;10.24;83.17
68075;BME280;54864;52.002;5.468;2023-04-21T01:50:38;101340.81;;;10.22;83.40
68075;BME280;54864;52.002;5.468;2023-04-21T01:51:40;101334.56;;;10.24;83.46
68075;BME280;54864;52.002;5.468;2023-04-21T01:52:42;101343.13;;;10.31;82.65
68075;BME280;54864;52.002;5.468;2023-04-21T01:53:44;101339.00;;;10.24;83.47
68075;BME280;54864;52.002;5.468;2023-04-21T01:54:45;101340.81;;;10.22;83.70
68075;BME280;54864;52.002;5.468;2023-04-21T01:55:46;101341.06;;;10.14;84.09
68075;BME280;54864;52.002;5.468;2023-04-21T01:56:50;101349.81;;;10.14;83.42
68075;BME280;54864;52.002;5.468;2023-04-21T01:57:51;101350.63;;;10.16;83.87
68075;BME280;54864;52.002;5.468;2023-04-21T01:58:52;101357.72;;;10.14;84.11
68075;BME280;54864;52.002;5.468;2023-04-21T01:59:54;101356.69;;;10.18;83.98
68075;BME280;54864;52.002;5.468;2023-04-21T02:00:54;101353.25;;;10.16;84.07
68075;BME280;54864;52.002;5.468;2023-04-21T02:01:56;101347.41;;;10.08;84.85
68075;BME280;54864;52.002;5.468;2023-04-21T02:02:57;101351.88;;;10.06;84.44
68075;BME280;54864;52.002;5.468;2023-04-21T02:03:58;101353.47;;;10.10;84.43
68075;BME280;54864;52.002;5.468;2023-04-21T02:04:59;101349.53;;;9.97;84.97
68075;BME280;54864;52.002;5.468;2023-04-21T02:06:01;101343.38;;;9.98;85.71
68075;BME280;54864;52.002;5.468;2023-04-21T02:07:01;101344.97;;;10.02;85.41
68075;BME280;54864;52.002;5.468;2023-04-21T02:08:04;101343.84;;;10.09;85.35
68075;BME280;54864;52.002;5.468;2023-04-21T02:09:06;101350.34;;;9.99;85.82
68075;BME280;54864;52.002;5.468;2023-04-21T02:10:08;101347.44;;;10.07;85.82
68075;BME280;54864;52.002;5.468;2023-04-21T02:11:09;101347.50;;;10.05;85.39
68075;BME280;54864;52.002;5.468;2023-04-21T02:12:11;101339.88;;;9.98;85.57
68075;BME280;54864;52.002;5.468;2023-04-21T02:13:12;101344.06;;;10.03;85.40
68075;BME280;54864;52.002;5.468;2023-04-21T02:14:14;101346.53;;;10.08;84.83
68075;BME280;54864;52.002;5.468;2023-04-21T02:15:14;101339.38;;;10.11;84.48
68075;BME280;54864;52.002;5.468;2023-04-21T02:16:16;101342.47;;;9.99;85.54
68075;BME280;54864;52.002;5.468;2023-04-21T02:17:17;101339.44;;;10.10;85.16
68075;BME280;54864;52.002;5.468;2023-04-21T02:18:19;101339.13;;;10.19;85.28
68075;BME280;54864;52.002;5.468;2023-04-21T02:19:21;101335.59;;;10.20;84.97
68075;BME280;54864;52.002;5.468;2023-04-21T02:20:22;101331.13;;;10.22;84.78
68075;BME280;54864;52.002;5.468;2023-04-21T02:21:23;101331.19;;;10.21;84.81
68075;BME280;54864;52.002;5.468;2023-04-21T02:22:25;101324.56;;;10.09;84.85
68075;BME280;54864;52.002;5.468;2023-04-21T02:23:27;101327.72;;;10.18;85.08
68075;BME280;54864;52.002;5.468;2023-04-21T02:24:29;101330.22;;;10.23;84.82
68075;BME280;54864;52.002;5.468;2023-04-21T02:25:30;101333.72;;;10.24;85.18
68075;BME280;54864;52.002;5.468;2023-04-21T02:26:32;101331.72;;;10.30;84.67
68075;BME280;54864;52.002;5.468;2023-04-21T02:27:32;101330.75;;;10.33;84.77
68075;BME280;54864;52.002;5.468;2023-04-21T02:28:34;101330.63;;;10.36;84.27
68075;BME280;54864;52.002;5.468;2023-04-21T02:29:35;101336.03;;;10.33;84.28
68075;BME280;54864;52.002;5.468;2023-04-21T02:30:36;101331.59;;;10.33;84.89
68075;BME280;54864;52.002;5.468;2023-04-21T02:31:37;101329.66;;;10.38;84.66
68075;BME280;54864;52.002;5.468;2023-04-21T02:32:39;101332.75;;;10.26;84.49
68075;BME280;54864;52.002;5.468;2023-04-21T02:33:39;101328.88;;;10.36;84.50
68075;BME280;54864;52.002;5.468;2023-04-21T02:34:41;101332.31;;;10.38;84.60
68075;BME280;54864;52.002;5.468;2023-04-21T02:35:42;101343.56;;;10.43;84.29
68075;BME280;54864;52.002;5.468;2023-04-21T02:36:44;101326.09;;;10.41;83.63
68075;BME280;54864;52.002;5.468;2023-04-21T02:37:44;101335.06;;;10.35;83.59
68075;BME280;54864;52.002;5.468;2023-04-21T02:38:47;101336.19;;;10.28;84.56
68075;BME280;54864;52.002;5.468;2023-04-21T02:39:49;101337.75;;;10.34;84.09
68075;BME280;54864;52.002;5.468;2023-04-21T02:40:50;101335.09;;;10.34;84.28
68075;BME280;54864;52.002;5.468;2023-04-21T02:41:51;101331.59;;;10.33;84.44
68075;BME280;54864;52.002;5.468;2023-04-21T02:42:53;101315.38;;;10.21;84.68
68075;BME280;54864;52.002;5.468;2023-04-21T02:43:54;101319.69;;;10.23;84.72
68075;BME280;54864;52.002;5.468;2023-04-21T02:44:55;101320.66;;;10.19;85.07
68075;BME280;54864;52.002;5.468;2023-04-21T02:45:56;101317.00;;;10.25;85.20
68075;BME280;54864;52.002;5.468;2023-04-21T02:46:58;101317.91;;;10.24;84.50
68075;BME280;54864;52.002;5.468;2023-04-21T02:47:58;101317.34;;;10.14;84.79
68075;BME280;54864;52.002;5.468;2023-04-21T02:49:00;101311.91;;;10.18;85.17
68075;BME280;54864;52.002;5.468;2023-04-21T02:50:01;101317.00;;;10.25;85.22
68075;BME280;54864;52.002;5.468;2023-04-21T02:51:03;101316.13;;;10.24;85.19
68075;BME280;54864;52.002;5.468;2023-04-21T02:52:04;101319.63;;;10.25;85.16
68075;BME280;54864;52.002;5.468;2023-04-21T02:53:06;101320.66;;;10.21;85.15
68075;BME280;54864;52.002;5.468;2023-04-21T02:54:08;101315.94;;;10.04;85.70
68075;BME280;54864;52.002;5.468;2023-04-21T02:55:10;101311.66;;;10.01;85.91
68075;BME280;54864;52.002;5.468;2023-04-21T02:56:10;101313.38;;;10.02;86.16
68075;BME280;54864;52.002;5.468;2023-04-21T02:57:12;101310.78;;;10.01;86.82
68075;BME280;54864;52.002;5.468;2023-04-21T02:58:13;101314.88;;;10.09;86.88
68075;BME280;54864;52.002;5.468;2023-04-21T02:59:15;101307.81;;;10.10;86.26
68075;BME280;54864;52.002;5.468;2023-04-21T03:00:16;101307.78;;;10.11;86.88
68075;BME280;54864;52.002;5.468;2023-04-21T03:01:18;101318.25;;;10.13;86.59
68075;BME280;54864;52.002;5.468;2023-04-21T03:02:19;101318.03;;;10.19;86.31
68075;BME280;54864;52.002;5.468;2023-04-21T03:03:21;101323.94;;;10.27;85.70
68075;BME280;54864;52.002;5.468;2023-04-21T03:04:22;101334.25;;;10.33;85.23
68075;BME280;54864;52.002;5.468;2023-04-21T03:05:24;101324.41;;;10.38;84.99
68075;BME280;54864;52.002;5.468;2023-04-21T03:06:27;101331.44;;;10.38;84.99
68075;BME280;54864;52.002;5.468;2023-04-21T03:07:29;101326.28;;;10.35;85.17
68075;BME280;54864;52.002;5.468;2023-04-21T03:08:30;101322.09;;;10.29;84.63
68075;BME280;54864;52.002;5.468;2023-04-21T03:09:34;101313.22;;;10.32;84.98
68075;BME280;54864;52.002;5.468;2023-04-21T03:10:35;101312.25;;;10.34;84.91
68075;BME280;54864;52.002;5.468;2023-04-21T03:11:37;101325.59;;;10.30;84.94
68075;BME280;54864;52.002;5.468;2023-04-21T03:12:38;101320.16;;;10.34;84.65
68075;BME280;54864;52.002;5.468;2023-04-21T03:13:39;101317.31;;;10.40;84.39
68075;BME280;54864;52.002;5.468;2023-04-21T03:14:40;101316.06;;;10.51;84.55
68075;BME280;54864;52.002;5.468;2023-04-21T03:15:42;101312.63;;;10.48;84.51
68075;BME280;54864;52.002;5.468;2023-04-21T03:16:43;101298.09;;;10.37;84.71
68075;BME280;54864;52.002;5.468;2023-04-21T03:17:44;101311.94;;;10.43;84.66
68075;BME280;54864;52.002;5.468;2023-04-21T03:18:47;101309.94;;;10.50;84.51
68075;BME280;54864;52.002;5.468;2023-04-21T03:19:49;101297.50;;;10.54;83.86
68075;BME280;54864;52.002;5.468;2023-04-21T03:20:50;101297.97;;;10.40;84.34
68075;BME280;54864;52.002;5.468;2023-04-21T03:21:52;101294.81;;;10.30;84.93
68075;BME280;54864;52.002;5.468;2023-04-21T03:22:53;101299.94;;;10.35;84.54
68075;BME280;54864;52.002;5.468;2023-04-21T03:23:54;101298.91;;;10.39;84.17
68075;BME280;54864;52.002;5.468;2023-04-21T03:24:57;101300.22;;;10.27;84.72
68075;BME280;54864;52.002;5.468;2023-04-21T03:25:58;101301.13;;;10.26;85.24
68075;BME280;54864;52.002;5.468;2023-04-21T03:26:59;101302.97;;;10.24;84.91
68075;BME280;54864;52.002;5.468;2023-04-21T03:28:01;101309.50;;;10.12;86.60
68075;BME280;54864;52.002;5.468;2023-04-21T03:29:03;101306.69;;;10.17;86.40
68075;BME280;54864;52.002;5.468;2023-04-21T03:30:05;101304.50;;;10.05;86.61
68075;BME280;54864;52.002;5.468;2023-04-21T03:31:07;101296.53;;;10.06;86.15
68075;BME280;54864;52.002;5.468;2023-04-21T03:32:07;101298.16;;;10.10;86.04
68075;BME280;54864;52.002;5.468;2023-04-21T03:33:09;101294.66;;;9.85;87.59
68075;BME280;54864;52.002;5.468;2023-04-21T03:34:10;101290.22;;;9.87;88.09
68075;BME280;54864;52.002;5.468;2023-04-21T03:35:12;101294.66;;;9.85;88.92
68075;BME280;54864;52.002;5.468;2023-04-21T03:36:14;101284.88;;;9.89;88.43
68075;BME280;54864;52.002;5.468;2023-04-21T03:37:16;101278.75;;;9.88;88.51
68075;BME280;54864;52.002;5.468;2023-04-21T03:38:17;101289.34;;;9.87;88.55
68075;BME280;54864;52.002;5.468;2023-04-21T03:39:19;101284.94;;;9.87;88.80
68075;BME280;54864;52.002;5.468;2023-04-21T03:40:24;101280.63;;;9.84;88.84
68075;BME280;54864;52.002;5.468;2023-04-21T03:41:26;101282.16;;;9.92;88.76
68075;BME280;54864;52.002;5.468;2023-04-21T03:42:26;101279.41;;;9.95;88.83
68075;BME280;54864;52.002;5.468;2023-04-21T03:43:29;101279.63;;;9.89;88.70
68075;BME280;54864;52.002;5.468;2023-04-21T03:44:30;101278.81;;;9.87;88.74
68075;BME280;54864;52.002;5.468;2023-04-21T03:45:33;101281.94;;;9.71;89.28
68075;BME280;54864;52.002;5.468;2023-04-21T03:46:43;101269.13;;;9.87;89.42
68075;BME280;54864;52.002;5.468;2023-04-21T03:47:45;101275.59;;;9.78;89.53
68075;BME280;54864;52.002;5.468;2023-04-21T03:48:46;101278.97;;;9.82;89.28
68075;BME280;54864;52.002;5.468;2023-04-21T03:49:48;101276.69;;;9.71;89.51
68075;BME280;54864;52.002;5.468;2023-04-21T03:50:48;101272.16;;;9.75;90.15
68075;BME280;54864;52.002;5.468;2023-04-21T03:51:50;101276.84;;;9.67;90.61
68075;BME280;54864;52.002;5.468;2023-04-21T03:52:51;101265.50;;;9.65;90.80
68075;BME280;54864;52.002;5.468;2023-04-21T03:53:53;101272.16;;;9.76;90.75
68075;BME280;54864;52.002;5.468;2023-04-21T03:54:53;101279.94;;;9.79;90.90
68075;BME280;54864;52.002;5.468;2023-04-21T03:55:57;101283.09;;;9.89;90.17
68075;BME280;54864;52.002;5.468;2023-04-21T03:56:57;101282.94;;;9.94;89.84
68075;BME280;54864;52.002;5.468;2023-04-21T03:57:59;101277.03;;;9.87;89.61
68075;BME280;54864;52.002;5.468;2023-04-21T03:59:00;101284.34;;;9.79;90.11
68075;BME280;54864;52.002;5.468;2023-04-21T04:00:02;101287.78;;;9.81;90.39
68075;BME280;54864;52.002;5.468;2023-04-21T04:01:04;101282.41;;;9.84;90.33
68075;BME280;54864;52.002;5.468;2023-04-21T04:02:07;101276.88;;;9.92;89.99
68075;BME280;54864;52.002;5.468;2023-04-21T04:03:07;101283.22;;;9.86;89.60
68075;BME280;54864;52.002;5.468;2023-04-21T04:04:09;101277.84;;;9.89;90.12
68075;BME280;54864;52.002;5.468;2023-04-21T04:05:10;101278.69;;;9.90;89.85
68075;BME280;54864;52.002;5.468;2023-04-21T04:06:14;101277.44;;;9.75;89.79
68075;BME280;54864;52.002;5.468;2023-04-21T04:07:15;101270.22;;;9.81;90.63
68075;BME280;54864;52.002;5.468;2023-04-21T04:08:17;101269.03;;;9.90;90.10
68075;BME280;54864;52.002;5.468;2023-04-21T04:09:18;101271.81;;;9.85;90.09
68075;BME280;54864;52.002;5.468;2023-04-21T04:10:19;101270.09;;;9.84;90.37
68075;BME280;54864;52.002;5.468;2023-04-21T04:11:21;101273.31;;;9.93;89.91
68075;BME280;54864;52.002;5.468;2023-04-21T04:12:23;101272.09;;;10.03;89.19
68075;BME280;54864;52.002;5.468;2023-04-21T04:13:24;101271.56;;;9.93;89.45
68075;BME280;54864;52.002;5.468;2023-04-21T04:14:26;101278.13;;;9.81;89.81
68075;BME280;54864;52.002;5.468;2023-04-21T04:15:27;101275.97;;;9.93;89.56
68075;BME280;54864;52.002;5.468;2023-04-21T04:16:29;101262.69;;;9.96;89.76
68075;BME280;54864;52.002;5.468;2023-04-21T04:17:30;101272.47;;;9.92;89.18
68075;BME280;54864;52.002;5.468;2023-04-21T04:18:31;101268.50;;;9.80;89.86
68075;BME280;54864;52.002;5.468;2023-04-21T04:19:32;101275.72;;;9.74;89.96
68075;BME280;54864;52.002;5.468;2023-04-21T04:20:34;101263.69;;;9.67;90.67
68075;BME280;54864;52.002;5.468;2023-04-21T04:21:36;101260.91;;;9.45;91.68
68075;BME280;54864;52.002;5.468;2023-04-21T04:22:38;101263.03;;;9.60;92.96
68075;BME280;54864;52.002;5.468;2023-04-21T04:23:39;101261.25;;;9.61;92.18
68075;BME280;54864;52.002;5.468;2023-04-21T04:24:40;101262.16;;;9.60;92.29
68075;BME280;54864;52.002;5.468;2023-04-21T04:25:41;101260.34;;;9.62;92.22
68075;BME280;54864;52.002;5.468;2023-04-21T04:26:44;101265.50;;;9.65;92.82
68075;BME280;54864;52.002;5.468;2023-04-21T04:27:45;101259.28;;;9.67;92.45
68075;BME280;54864;52.002;5.468;2023-04-21T04:28:48;101268.84;;;9.70;92.83
68075;BME280;54864;52.002;5.468;2023-04-21T04:29:49;101267.06;;;9.70;91.91
68075;BME280;54864;52.002;5.468;2023-04-21T04:30:52;101266.78;;;9.79;91.96
68075;BME280;54864;52.002;5.468;2023-04-21T04:31:54;101269.50;;;9.76;91.74
68075;BME280;54864;52.002;5.468;2023-04-21T04:32:57;101270.44;;;9.74;91.79
68075;BME280;54864;52.002;5.468;2023-04-21T04:34:00;101268.50;;;9.80;91.77
68075;BME280;54864;52.002;5.468;2023-04-21T04:35:02;101273.53;;;9.87;91.03
68075;BME280;54864;52.002;5.468;2023-04-21T04:36:04;101273.50;;;9.88;91.01
68075;BME280;54864;52.002;5.468;2023-04-21T04:37:05;101276.06;;;9.90;90.66
68075;BME280;54864;52.002;5.468;2023-04-21T04:38:10;101268.38;;;9.83;90.53
68075;BME280;54864;52.002;5.468;2023-04-21T04:39:15;101262.84;;;9.91;90.54
68075;BME280;54864;52.002;5.468;2023-04-21T04:40:17;101263.53;;;9.96;90.60
68075;BME280;54864;52.002;5.468;2023-04-21T04:41:19;101264.25;;;9.76;90.96
68075;BME280;54864;52.002;5.468;2023-04-21T04:42:23;101263.88;;;9.87;90.97
68075;BME280;54864;52.002;5.468;2023-04-21T04:43:25;101269.84;;;9.92;91.24
68075;BME280;54864;52.002;5.468;2023-04-21T04:44:26;101266.41;;;9.90;90.75
68075;BME280;54864;52.002;5.468;2023-04-21T04:45:28;101262.91;;;9.90;90.77
68075;BME280;54864;52.002;5.468;2023-04-21T04:46:32;101266.97;;;9.98;90.30
68075;BME280;54864;52.002;5.468;2023-04-21T04:47:34;101268.22;;;9.88;91.37
68075;BME280;54864;52.002;5.468;2023-04-21T04:48:35;101269.94;;;9.89;91.07
68075;BME280;54864;52.002;5.468;2023-04-21T04:49:36;101267.16;;;9.94;90.59
68075;BME280;54864;52.002;5.468;2023-04-21T04:50:37;101259.13;;;9.97;90.99
68075;BME280;54864;52.002;5.468;2023-04-21T04:51:39;101261.50;;;10.04;90.29
68075;BME280;54864;52.002;5.468;2023-04-21T04:52:39;101266.81;;;10.03;90.14
68075;BME280;54864;52.002;5.468;2023-04-21T04:53:41;101267.84;;;9.99;90.05
68075;BME280;54864;52.002;5.468;2023-04-21T04:54:42;101267.09;;;9.95;90.57
68075;BME280;54864;52.002;5.468;2023-04-21T04:55:43;101264.41;;;9.97;90.83
68075;BME280;54864;52.002;5.468;2023-04-21T04:56:45;101264.47;;;9.95;90.22
68075;BME280;54864;52.002;5.468;2023-04-21T04:57:48;101264.34;;;9.98;90.38
68075;BME280;54864;52.002;5.468;2023-04-21T04:58:49;101266.34;;;9.92;90.04
68075;BME280;54864;52.002;5.468;2023-04-21T04:59:53;101263.72;;;9.92;90.65
68075;BME280;54864;52.002;5.468;2023-04-21T05:00:54;101265.16;;;10.00;90.53
68075;BME280;54864;52.002;5.468;2023-04-21T05:01:56;101270.53;;;9.97;89.51
68075;BME280;54864;52.002;5.468;2023-04-21T05:02:57;101275.31;;;9.86;89.93
68075;BME280;54864;52.002;5.468;2023-04-21T05:03:58;101268.91;;;9.93;90.55
68075;BME280;54864;52.002;5.468;2023-04-21T05:04:59;101283.75;;;9.96;90.05
68075;BME280;54864;52.002;5.468;2023-04-21T05:06:01;101279.88;;;10.06;89.98
68075;BME280;54864;52.002;5.468;2023-04-21T05:07:01;101284.22;;;10.07;89.80
68075;BME280;54864;52.002;5.468;2023-04-21T05:08:05;101284.34;;;10.04;89.76
68075;BME280;54864;52.002;5.468;2023-04-21T05:09:06;101281.66;;;10.05;89.56
68075;BME280;54864;52.002;5.468;2023-04-21T05:10:08;101278.50;;;9.96;89.19
68075;BME280;54864;52.002;5.468;2023-04-21T05:11:09;101280.97;;;9.74;91.16
68075;BME280;54864;52.002;5.468;2023-04-21T05:12:10;101284.03;;;9.88;90.92
68075;BME280;54864;52.002;5.468;2023-04-21T05:13:15;101285.00;;;9.85;90.72
68075;BME280;54864;52.002;5.468;2023-04-21T05:14:20;101288.31;;;9.91;91.85
68075;BME280;54864;52.002;5.468;2023-04-21T05:15:21;101287.19;;;9.98;90.87
68075;BME280;54864;52.002;5.468;2023-04-21T05:16:23;101283.00;;;9.92;90.69
68075;BME280;54864;52.002;5.468;2023-04-21T05:17:23;101284.72;;;9.93;90.85
68075;BME280;54864;52.002;5.468;2023-04-21T05:18:25;101284.66;;;9.95;90.64
68075;BME280;54864;52.002;5.468;2023-04-21T05:19:26;101282.84;;;9.97;91.03
68075;BME280;54864;52.002;5.468;2023-04-21T05:20:28;101286.28;;;9.99;90.58
68075;BME280;54864;52.002;5.468;2023-04-21T05:21:29;101285.25;;;10.03;90.86
68075;BME280;54864;52.002;5.468;2023-04-21T05:22:31;101288.06;;;9.98;90.99
68075;BME280;54864;52.002;5.468;2023-04-21T05:23:33;101281.66;;;10.05;90.84
68075;BME280;54864;52.002;5.468;2023-04-21T05:24:33;101283.38;;;10.06;90.04